createdAt,value
2018-04-26T00:00:05.235Z,56.7
2018-04-26T00:15:05.234Z,56.8
2018-04-26T00:30:05.339Z,56.7
2018-04-26T00:45:04.488Z,57
2018-04-26T01:00:05.478Z,57.3
2018-04-26T01:15:04.629Z,57.3
2018-04-26T01:30:04.882Z,56
2018-04-26T01:45:05.159Z,56.3
2018-04-26T02:00:05.033Z,56.2
2018-04-26T02:15:05.050Z,54.5
2018-04-26T02:30:05.562Z,55.6
2018-04-26T02:45:04.949Z,55.4
2018-04-26T03:00:05.042Z,56.4
2018-04-26T03:15:05.116Z,57.2
2018-04-26T03:30:04.927Z,57.7
2018-04-26T03:45:05.331Z,58
2018-04-26T04:00:05.081Z,56.7
2018-04-26T04:15:04.903Z,56.3
2018-04-26T04:30:05.298Z,56.2
2018-04-26T04:45:05.635Z,56.9
2018-04-26T05:00:04.810Z,56.9
2018-04-26T05:15:05.244Z,56.8
2018-04-26T05:30:05.144Z,56.6
2018-04-26T05:45:04.356Z,56
2018-04-26T06:00:04.936Z,55.8
2018-04-26T06:15:04.419Z,55.4
2018-04-26T06:30:04.660Z,56
2018-04-26T06:45:05.127Z,54.8
2018-04-26T07:00:04.687Z,57.3
2018-04-26T07:15:05.271Z,56.1
2018-04-26T07:30:04.473Z,55.3
2018-04-26T07:45:04.965Z,54.3
2018-04-26T08:00:04.469Z,54.4
2018-04-26T08:15:04.914Z,54.1
2018-04-26T08:30:04.653Z,55.3
2018-04-26T08:45:05.126Z,54.2
2018-04-26T09:00:04.765Z,54.4
2018-04-26T09:15:05.447Z,54
2018-04-26T09:30:04.796Z,55.1
2018-04-26T09:45:05.337Z,55.1
2018-04-26T10:00:04.881Z,56
2018-04-26T10:15:04.735Z,56.4
2018-04-26T10:30:05.025Z,56.7
2018-04-26T10:45:05.193Z,56.9
2018-04-26T11:00:05.090Z,56.4
2018-04-26T11:15:05.342Z,56.4
2018-04-26T11:30:04.806Z,55.9
2018-04-26T11:45:04.842Z,56.1
2018-04-26T12:00:05.029Z,56.6
2018-04-26T12:15:04.773Z,55.7
2018-04-26T12:30:04.602Z,57.1
2018-04-26T12:45:05.099Z,55.1
2018-04-26T13:00:05.394Z,55.4
2018-04-26T13:15:05.220Z,55.1
2018-04-26T13:30:04.637Z,54.9
2018-04-26T13:45:05.207Z,55.7
2018-04-26T14:00:04.787Z,55.1
2018-04-26T14:15:04.939Z,55.5
2018-04-26T14:30:05.423Z,55
2018-04-26T14:45:04.617Z,54.9
2018-04-26T15:00:05.352Z,54.8
2018-04-26T15:15:04.336Z,54.2
2018-04-26T15:30:04.569Z,54.2
2018-04-26T15:45:05.120Z,53.9
2018-04-26T16:00:05.114Z,54.2
2018-04-26T16:15:05.104Z,54.1
2018-04-26T16:30:04.752Z,53.7
2018-04-26T16:45:04.296Z,54.3
2018-04-26T17:00:04.842Z,55.4
2018-04-26T17:15:04.351Z,54.5
2018-04-26T17:30:04.580Z,54.5
2018-04-26T17:45:05.068Z,55.4
2018-04-26T18:00:04.524Z,57.6
2018-04-26T18:15:05.061Z,58.2
2018-04-26T18:30:04.359Z,58.6
2018-04-26T18:45:04.333Z,60.3
2018-04-26T19:00:04.855Z,60.6
2018-04-26T19:15:04.781Z,59.6
2018-04-26T19:30:05.469Z,59.2
2018-04-26T19:45:05.237Z,59.6
2018-04-26T20:00:05.035Z,60
2018-04-26T20:15:04.588Z,61.1
2018-04-26T20:30:04.804Z,61.4
2018-04-26T20:45:04.473Z,62.9
2018-04-26T21:00:04.460Z,62.3
2018-04-26T21:15:05.387Z,63.4
2018-04-26T21:30:04.664Z,63.7
2018-04-26T21:45:05.141Z,63.3
2018-04-26T22:00:05.222Z,63.6
2018-04-26T22:15:05.263Z,63.9
2018-04-26T22:30:04.720Z,63.9
2018-04-26T22:45:05.444Z,63.4
2018-04-26T23:00:05.208Z,64.7
2018-04-26T23:15:05.266Z,63.8
2018-04-26T23:30:05.355Z,64.5
2018-04-26T23:45:04.884Z,64.3
